Ana Sayfa
METAR-TAF:

METAR-TAF

Havaalanları :

Guadalupe Dağları Ulusal Parkı

Pine Springs, Teksas, Amerika Birleşik Devletleri

Enlem: 31-49-52N, Boylam: 104-48-32W, yükseklik: 1661 m

Güncel hava durumu gözlemi

Rapor saat 23:51 UTC de 1 saat ve 7 dakika önce yapıldı.
Rüzgar batı/güneybatıdan 28 kt ve 35 kt'a kadar ani rüzgarlar
Sıcaklık 32°C
Nem 8%
Basınç 1016 hPa
Görüş mesafesi: 12.9 km
Açık gökyüzü

METAR: KGDP 192351Z AUTO 24028G35KT 8SM CLR 32/M07 A3001 RMK AO2 PK WND 26037/2325 SLP066 T03221067 58014

Saat: 19:58 (00:58 UTC)


TAF: eksik

4.000'den fazla havaalanı için hava durumu gözlemleri ve tahminleri (METAR ve TAF raporları).

Kullanılabilir istasyonlar harita üzerinde sarı ve kırmızı noktalarla gösterilir.

İstasyonun adını görmek için fareyi noktanın üzerinde gezdirin.

Sonrasında hava gözlem ve tahminlerini görmek için tıklayın.

Haritayı değiştirmek için: yaklaştırmak için siyah artı işaretli yeşil düğmeye ve uzaklaştırmak için de eksi işaretli düğmeye hızla tıklayın; bitişik haritalar için yeşil okları kullanın.


METAR-TAF: